Time;durP1;ratioP1;P1;durP2;ratioP2;P2;SDS_P1;SDS_P2;PMS_P1;PMS_P2;Temp;Humidity;BMP_temperature;BMP_pressure;BME280_temperature;BME280_humidity;BME280_pressure;Samples;Min_cycle;Max_cycle;Signal;HPM_P1;HPM_P2
2022/10/15 00:00:40;;;;;;;31.48;15.25;;;13.00;81.20;;;;;;4127664;28;20030;-84
2022/10/15 00:02:41;;;;;;;26.63;15.93;;;13.10;81.20;;;;;;4129179;28;20031;-85
2022/10/15 00:04:42;;;;;;;26.98;15.68;;;13.10;81.30;;;;;;4109343;28;20085;-85
2022/10/15 00:06:42;;;;;;;23.25;15.23;;;13.00;81.10;;;;;;4097418;28;20105;-85
2022/10/15 00:08:46;;;;;;;27.25;15.60;;;13.10;81.20;;;;;;4116680;28;20038;-85
2022/10/15 00:10:47;;;;;;;29.80;14.77;;;13.00;81.20;;;;;;4111260;28;20027;-85
2022/10/15 00:12:48;;;;;;;25.38;15.32;;;13.10;81.30;;;;;;4113295;28;20035;-85
2022/10/15 00:14:48;;;;;;;26.30;14.88;;;13.10;81.30;;;;;;4127899;28;20030;-85
2022/10/15 00:16:49;;;;;;;26.67;16.02;;;13.10;81.30;;;;;;4128931;28;20102;-85
2022/10/15 00:18:51;;;;;;;31.45;17.98;;;13.20;81.40;;;;;;4128006;28;20438;-85
2022/10/15 00:20:52;;;;;;;27.10;15.60;;;13.20;81.50;;;;;;4110264;28;20094;-85
2022/10/15 00:22:52;;;;;;;27.52;17.33;;;13.20;81.40;;;;;;4122511;28;20541;-85
2022/10/15 00:24:53;;;;;;;27.35;15.95;;;13.10;81.40;;;;;;4123958;28;20504;-84
2022/10/15 00:26:54;;;;;;;25.65;15.38;;;13.10;81.40;;;;;;4109831;28;20030;-84
2022/10/15 00:28:58;;;;;;;23.48;15.13;;;13.10;81.40;;;;;;4125050;28;20023;-84
2022/10/15 00:31:04;;;;;;;28.40;16.42;;;13.20;81.50;;;;;;4124223;28;20026;-84
2022/10/15 00:33:04;;;;;;;23.23;15.77;;;13.10;81.40;;;;;;4126466;28;20085;-85
2022/10/15 00:35:05;;;;;;;29.77;16.95;;;13.30;81.60;;;;;;4123816;28;20038;-85
2022/10/15 00:37:07;;;;;;;27.25;16.30;;;13.20;81.50;;;;;;4111475;28;21941;-84
2022/10/15 00:39:07;;;;;;;25.83;16.05;;;13.30;81.60;;;;;;4122271;28;20101;-84
2022/10/15 00:41:14;;;;;;;25.77;15.93;;;13.20;81.50;;;;;;4104510;28;20038;-85
2022/10/15 00:43:15;;;;;;;23.88;15.40;;;13.30;81.60;;;;;;4100807;28;20086;-87
2022/10/15 00:45:15;;;;;;;25.23;15.45;;;13.20;81.60;;;;;;4123516;28;20456;-85
2022/10/15 00:47:23;;;;;;;27.48;15.00;;;13.30;81.60;;;;;;4104363;28;20173;-85
2022/10/15 00:49:32;;;;;;;25.27;14.18;;;13.40;81.70;;;;;;4127802;28;20228;-85
2022/10/15 00:51:40;;;;;;;27.75;14.68;;;13.20;81.50;;;;;;4126702;28;20546;-86
2022/10/15 00:53:41;;;;;;;25.42;15.45;;;13.40;81.60;;;;;;4124900;28;20023;-86
2022/10/15 00:55:42;;;;;;;23.90;14.88;;;13.30;81.70;;;;;;4101301;28;20057;-86
2022/10/15 00:57:46;;;;;;;24.27;15.73;;;13.30;81.60;;;;;;4111947;28;20043;-86
2022/10/15 00:59:51;;;;;;;26.55;15.65;;;13.30;81.60;;;;;;4113580;28;20027;-85
2022/10/15 01:01:53;;;;;;;24.88;15.57;;;13.30;81.70;;;;;;4113275;28;20027;-85
2022/10/15 01:03:55;;;;;;;23.13;14.45;;;13.40;81.70;;;;;;4123959;28;20030;-86
2022/10/15 01:05:55;;;;;;;27.75;15.43;;;13.40;81.80;;;;;;4124334;28;20023;-87
2022/10/15 01:07:56;;;;;;;22.35;14.38;;;13.30;81.80;;;;;;4132019;28;20025;-85
2022/10/15 01:09:57;;;;;;;23.52;14.90;;;13.40;81.90;;;;;;4133917;28;20698;-85
2022/10/15 01:11:58;;;;;;;24.80;15.90;;;13.40;81.90;;;;;;4125053;28;20022;-85
2022/10/15 01:14:11;;;;;;;26.25;16.42;;;13.40;81.90;;;;;;4107811;28;20031;-86
2022/10/15 01:16:27;;;;;;;32.63;18.00;;;13.30;81.90;;;;;;4127623;28;20449;-86
2022/10/15 01:19:02;;;;;;;29.58;16.73;;;13.30;82.10;;;;;;4126564;28;20232;-86
2022/10/15 01:21:18;;;;;;;30.52;16.45;;;13.40;82.10;;;;;;4110458;28;20026;-86
2022/10/15 01:23:54;;;;;;;27.83;17.48;;;13.40;82.20;;;;;;4124017;28;20037;-86
2022/10/15 01:26:17;;;;;;;27.83;16.75;;;13.30;82.10;;;;;;4128358;28;20089;-86
2022/10/15 01:29:02;;;;;;;26.97;16.53;;;13.40;82.00;;;;;;4109280;28;20054;-85
2022/10/15 01:31:19;;;;;;;30.88;17.08;;;13.40;82.20;;;;;;4103800;28;20011;-85
2022/10/15 01:33:42;;;;;;;28.42;17.92;;;13.30;81.90;;;;;;4127948;28;20088;-86
2022/10/15 01:35:51;;;;;;;28.60;17.40;;;13.30;81.90;;;;;;4127386;28;20037;-87
2022/10/15 01:38:07;;;;;;;32.58;19.08;;;13.40;82.70;;;;;;4126005;28;20031;-86
2022/10/15 01:40:24;;;;;;;27.95;17.08;;;13.40;82.00;;;;;;4124795;28;20044;-86
2022/10/15 01:42:37;;;;;;;27.23;18.13;;;13.40;82.00;;;;;;4095329;28;20043;-86
2022/10/15 01:44:50;;;;;;;27.00;17.15;;;13.50;82.20;;;;;;4126641;28;20026;-87
2022/10/15 01:47:03;;;;;;;30.60;18.23;;;13.40;82.10;;;;;;4127812;28;20054;-85
2022/10/15 01:49:05;;;;;;;29.30;17.90;;;13.40;82.10;;;;;;4125256;28;20061;-86
2022/10/15 01:51:09;;;;;;;32.88;18.98;;;13.50;82.00;;;;;;4128878;28;20031;-86
2022/10/15 01:53:14;;;;;;;35.90;19.05;;;13.50;82.10;;;;;;4127508;28;20089;-87
2022/10/15 01:55:17;;;;;;;29.77;18.60;;;13.50;82.10;;;;;;4124195;28;20047;-86
2022/10/15 01:57:20;;;;;;;32.05;18.83;;;13.40;82.00;;;;;;4120716;28;20035;-86
2022/10/15 01:59:24;;;;;;;33.50;19.17;;;13.50;82.10;;;;;;4104943;28;20030;-87
2022/10/15 02:01:25;;;;;;;30.25;18.88;;;13.40;82.10;;;;;;4110897;28;20034;-86
2022/10/15 02:03:26;;;;;;;33.78;19.50;;;13.50;82.20;;;;;;4126132;28;20030;-86
2022/10/15 02:05:33;;;;;;;36.08;18.95;;;13.50;82.10;;;;;;4093992;28;20039;-87
2022/10/15 02:07:51;;;;;;;33.60;19.80;;;13.40;82.00;;;;;;4141335;28;20030;-86
2022/10/15 02:10:07;;;;;;;27.45;17.10;;;13.40;82.20;;;;;;4128867;28;20117;-86
2022/10/15 02:12:21;;;;;;;30.30;17.40;;;13.40;82.10;;;;;;4126032;28;20037;-85
2022/10/15 02:14:33;;;;;;;30.38;18.95;;;13.40;82.00;;;;;;4125751;28;20101;-85
2022/10/15 02:16:46;;;;;;;30.20;17.25;;;13.40;82.10;;;;;;4124189;28;20050;-85
2022/10/15 02:19:11;;;;;;;29.83;18.10;;;13.50;82.20;;;;;;4097366;28;20031;-86
2022/10/15 02:21:37;;;;;;;35.05;19.85;;;13.40;82.20;;;;;;4097357;28;20046;-86
2022/10/15 02:24:11;;;;;;;30.70;18.77;;;13.40;82.20;;;;;;4103274;28;20053;-86
2022/10/15 02:26:14;;;;;;;31.65;18.85;;;13.40;82.30;;;;;;4124564;28;20101;-85
2022/10/15 02:28:17;;;;;;;33.70;19.25;;;13.40;82.00;;;;;;4128992;28;20674;-85
2022/10/15 02:30:19;;;;;;;31.52;19.02;;;13.40;82.10;;;;;;4126514;28;20026;-85
2022/10/15 02:32:21;;;;;;;39.88;19.23;;;13.40;82.20;;;;;;4108686;28;20031;-86
2022/10/15 02:34:26;;;;;;;33.58;20.08;;;13.40;82.20;;;;;;4124019;28;20038;-86
2022/10/15 02:36:28;;;;;;;28.05;17.33;;;13.40;82.30;;;;;;4108245;28;20031;-86
2022/10/15 02:38:31;;;;;;;31.80;18.48;;;13.40;82.20;;;;;;4126731;28;20034;-86
2022/10/15 02:40:34;;;;;;;38.40;19.88;;;13.50;82.30;;;;;;4125623;28;20042;-85
2022/10/15 02:42:35;;;;;;;30.92;19.00;;;13.50;82.30;;;;;;4111398;28;20018;-86
2022/10/15 02:44:36;;;;;;;33.35;19.70;;;13.40;82.30;;;;;;4125255;28;20034;-86
2022/10/15 02:46:37;;;;;;;37.15;21.20;;;13.40;82.30;;;;;;4123875;28;20077;-86
2022/10/15 02:48:38;;;;;;;32.95;19.58;;;13.50;82.50;;;;;;4110835;28;20046;-86
2022/10/15 02:50:39;;;;;;;34.85;19.77;;;13.50;82.30;;;;;;4127203;28;20030;-86
2022/10/15 02:52:39;;;;;;;34.25;19.20;;;13.50;82.40;;;;;;4092193;28;20142;-86
2022/10/15 02:54:40;;;;;;;31.85;18.80;;;13.50;82.40;;;;;;4090649;28;20031;-85
2022/10/15 02:56:41;;;;;;;30.70;17.95;;;13.40;82.30;;;;;;4089322;28;20062;-87
2022/10/15 02:58:41;;;;;;;31.98;17.95;;;13.50;82.30;;;;;;4107192;28;20035;-86
2022/10/15 03:00:42;;;;;;;35.38;16.45;;;13.40;82.30;;;;;;4119781;28;20120;-85
2022/10/15 03:02:43;;;;;;;38.90;18.23;;;13.40;82.30;;;;;;4124960;28;20031;-86
2022/10/15 03:04:44;;;;;;;29.08;16.90;;;13.50;82.50;;;;;;4124690;28;20030;-85
2022/10/15 03:06:45;;;;;;;27.80;16.20;;;13.40;82.30;;;;;;4102869;28;20076;-86
2022/10/15 03:08:46;;;;;;;26.88;16.73;;;13.30;82.10;;;;;;4107830;28;20058;-86
2022/10/15 03:10:47;;;;;;;30.30;16.20;;;13.50;82.40;;;;;;4104470;28;20022;-86
2022/10/15 03:12:47;;;;;;;27.90;16.35;;;13.50;82.40;;;;;;4122839;28;20026;-84
2022/10/15 03:14:48;;;;;;;28.13;16.05;;;13.50;82.30;;;;;;4124012;28;20049;-86
2022/10/15 03:16:49;;;;;;;27.10;13.80;;;13.50;82.40;;;;;;4124612;28;20029;-84
2022/10/15 03:18:50;;;;;;;26.48;13.82;;;13.50;82.30;;;;;;4121560;28;20070;-85
2022/10/15 03:20:55;;;;;;;23.02;12.55;;;13.40;82.20;;;;;;4102190;28;21933;-85
2022/10/15 03:22:55;;;;;;;26.70;13.00;;;13.50;82.20;;;;;;4090776;28;20028;-85
2022/10/15 03:24:56;;;;;;;23.98;12.43;;;13.40;82.10;;;;;;4124014;28;20069;-85
2022/10/15 03:26:57;;;;;;;28.83;13.77;;;13.40;82.00;;;;;;4125129;28;20388;-85
2022/10/15 03:28:57;;;;;;;27.05;13.07;;;13.40;81.90;;;;;;4122175;28;20037;-85
2022/10/15 03:30:58;;;;;;;23.45;11.55;;;13.40;81.90;;;;;;4123302;28;20537;-85
2022/10/15 03:32:59;;;;;;;24.10;12.45;;;13.50;81.80;;;;;;4120263;28;20034;-85
2022/10/15 03:35:00;;;;;;;24.13;12.77;;;13.40;81.80;;;;;;4119860;28;20443;-85
2022/10/15 03:37:00;;;;;;;19.85;12.73;;;13.30;81.70;;;;;;4123608;28;20094;-85
2022/10/15 03:39:01;;;;;;;21.55;12.20;;;13.50;81.90;;;;;;4119819;28;20106;-86
2022/10/15 03:41:02;;;;;;;22.35;12.23;;;13.30;81.70;;;;;;4108895;28;20065;-85
2022/10/15 03:43:03;;;;;;;22.00;12.02;;;13.30;81.70;;;;;;4104236;28;20890;-85
2022/10/15 03:45:04;;;;;;;22.17;11.65;;;13.40;81.80;;;;;;4122178;28;20026;-86
2022/10/15 03:47:04;;;;;;;22.17;12.60;;;13.30;81.80;;;;;;4106445;28;20027;-83
2022/10/15 03:49:05;;;;;;;23.65;12.57;;;13.40;81.80;;;;;;4123667;28;20443;-85
2022/10/15 03:51:06;;;;;;;20.42;11.15;;;13.30;81.80;;;;;;4106488;28;20038;-85
2022/10/15 03:53:08;;;;;;;18.20;10.90;;;13.30;81.70;;;;;;4122343;28;20086;-85
2022/10/15 03:55:10;;;;;;;19.73;10.40;;;13.30;81.80;;;;;;4123217;28;20026;-85
2022/10/15 03:57:10;;;;;;;20.52;11.07;;;13.30;81.70;;;;;;4120431;28;20030;-85
2022/10/15 03:59:11;;;;;;;20.27;11.05;;;13.40;81.80;;;;;;4120324;28;20113;-85
2022/10/15 04:01:15;;;;;;;19.05;11.43;;;13.30;81.70;;;;;;4123429;28;20030;-85
2022/10/15 04:03:15;;;;;;;22.27;10.10;;;13.30;81.60;;;;;;4106340;28;20035;-85
2022/10/15 04:05:16;;;;;;;20.52;10.45;;;13.30;81.60;;;;;;4124315;28;20084;-84
2022/10/15 04:07:17;;;;;;;20.40;10.88;;;13.30;81.60;;;;;;4123222;28;20026;-85
2022/10/15 04:09:18;;;;;;;20.42;11.32;;;13.30;81.50;;;;;;4123424;28;20072;-85
2022/10/15 04:11:19;;;;;;;19.70;11.20;;;13.20;81.30;;;;;;4123240;28;20034;-84
2022/10/15 04:13:40;;;;;;;24.77;10.80;;;13.30;81.20;;;;;;4119161;28;20912;-85
2022/10/15 04:16:04;;;;;;;22.88;11.05;;;13.30;81.20;;;;;;4115305;28;20035;-84
2022/10/15 04:18:24;;;;;;;19.65;9.75;;;13.20;81.00;;;;;;4123238;28;20038;-86
2022/10/15 04:20:45;;;;;;;19.02;11.02;;;13.20;80.90;;;;;;4113252;28;20035;-86
2022/10/15 04:23:06;;;;;;;20.40;11.88;;;13.20;80.90;;;;;;4130695;28;20060;-84
2022/10/15 04:25:26;;;;;;;20.90;10.43;;;13.20;80.90;;;;;;4123867;28;20038;-85
2022/10/15 04:27:47;;;;;;;17.70;10.13;;;13.20;80.90;;;;;;4129651;28;20380;-85
2022/10/15 04:30:08;;;;;;;18.73;10.23;;;13.10;80.80;;;;;;4117528;28;20042;-85
2022/10/15 04:32:29;;;;;;;17.58;9.70;;;13.00;80.70;;;;;;4123926;28;20027;-85
2022/10/15 04:34:49;;;;;;;18.20;9.63;;;13.00;80.70;;;;;;4130857;28;20045;-85
2022/10/15 04:37:10;;;;;;;17.25;9.15;;;13.00;80.80;;;;;;4128470;28;20218;-84
2022/10/15 04:39:31;;;;;;;22.40;10.07;;;13.00;80.80;;;;;;4117448;28;20049;-84
2022/10/15 04:41:52;;;;;;;18.45;10.60;;;13.00;80.80;;;;;;4133118;28;20050;-85
2022/10/15 04:44:15;;;;;;;17.50;9.50;;;13.00;80.80;;;;;;4129854;28;20042;-84
2022/10/15 04:46:36;;;;;;;17.23;9.98;;;12.90;80.80;;;;;;4128189;28;20119;-84
2022/10/15 04:48:57;;;;;;;18.58;10.23;;;12.90;80.70;;;;;;4118822;28;20030;-84
2022/10/15 04:51:19;;;;;;;19.75;9.90;;;12.90;80.60;;;;;;4121055;28;20499;-84
2022/10/15 04:53:40;;;;;;;15.38;8.63;;;12.90;80.50;;;;;;4134362;28;20030;-85
2022/10/15 04:56:04;;;;;;;17.33;10.27;;;12.80;80.40;;;;;;4131154;28;20034;-85
2022/10/15 04:58:25;;;;;;;20.83;10.98;;;12.80;80.40;;;;;;4119522;28;20429;-84
2022/10/15 05:00:45;;;;;;;21.20;10.20;;;12.80;80.50;;;;;;4134304;28;20026;-85
2022/10/15 05:03:06;;;;;;;27.60;11.82;;;12.70;80.30;;;;;;4121009;28;20023;-85
2022/10/15 05:05:27;;;;;;;21.05;11.25;;;12.80;80.40;;;;;;4134103;28;20045;-84
2022/10/15 05:07:50;;;;;;;23.23;11.05;;;12.60;80.20;;;;;;4134956;28;20030;-84
2022/10/15 05:10:11;;;;;;;24.02;11.90;;;12.70;80.30;;;;;;4134745;28;20081;-84
2022/10/15 05:12:31;;;;;;;21.80;11.50;;;12.60;80.20;;;;;;4136499;28;20030;-85
2022/10/15 05:14:52;;;;;;;24.60;11.85;;;12.60;80.10;;;;;;4146179;28;20027;-85
2022/10/15 05:17:13;;;;;;;25.48;11.80;;;12.60;80.20;;;;;;4129100;28;20038;-84
2022/10/15 05:19:33;;;;;;;25.48;12.10;;;12.50;80.10;;;;;;4127126;28;20066;-84
2022/10/15 05:21:54;;;;;;;27.73;11.95;;;12.50;80.10;;;;;;4128122;28;20084;-84
2022/10/15 05:24:15;;;;;;;24.95;12.88;;;12.50;80.20;;;;;;4116665;28;20039;-85
2022/10/15 05:26:35;;;;;;;18.33;10.48;;;12.40;80.30;;;;;;4130135;28;20153;-83
2022/10/15 05:28:57;;;;;;;24.83;11.63;;;12.50;80.40;;;;;;4130297;28;20130;-84
2022/10/15 05:31:21;;;;;;;24.73;10.93;;;12.30;80.30;;;;;;4128140;28;20042;-85
2022/10/15 05:33:42;;;;;;;18.27;9.47;;;12.40;80.50;;;;;;4127869;28;20456;-84
2022/10/15 05:36:16;;;;;;;21.40;10.68;;;12.40;80.60;;;;;;4129040;28;20037;-83
2022/10/15 05:38:37;;;;;;;23.45;12.05;;;12.30;80.70;;;;;;4129071;28;20097;-84
2022/10/15 05:40:58;;;;;;;23.92;11.27;;;12.40;80.80;;;;;;4113433;28;20090;-85
2022/10/15 05:43:17;;;;;;;24.70;11.75;;;12.40;80.90;;;;;;4114410;28;20448;-84
2022/10/15 05:45:36;;;;;;;20.42;12.05;;;12.40;81.00;;;;;;4129956;28;20045;-84
2022/10/15 05:47:55;;;;;;;27.20;12.70;;;12.20;80.90;;;;;;4129656;28;20069;-84
2022/10/15 05:50:15;;;;;;;23.10;11.77;;;12.30;81.00;;;;;;4126219;28;20045;-85
2022/10/15 05:52:34;;;;;;;23.40;11.85;;;12.20;80.90;;;;;;4136476;28;20045;-84
2022/10/15 05:54:53;;;;;;;36.22;13.88;;;12.30;81.10;;;;;;4139421;28;20041;-84
2022/10/15 05:57:13;;;;;;;34.88;13.60;;;12.30;81.20;;;;;;4122331;28;20046;-84
2022/10/15 05:59:32;;;;;;;26.85;12.88;;;12.20;81.30;;;;;;4137047;28;20053;-85
2022/10/15 06:01:51;;;;;;;31.30;14.27;;;12.30;81.40;;;;;;4125200;28;20073;-84
2022/10/15 06:04:12;;;;;;;29.77;13.90;;;12.20;81.60;;;;;;4120502;28;20053;-84
2022/10/15 06:06:32;;;;;;;27.58;12.88;;;12.20;81.60;;;;;;4133419;28;20045;-85
2022/10/15 06:08:52;;;;;;;42.25;14.55;;;12.30;81.70;;;;;;4132926;28;20045;-84
2022/10/15 06:11:11;;;;;;;31.40;13.80;;;12.20;81.60;;;;;;4114200;28;20089;-84
2022/10/15 06:13:30;;;;;;;38.70;14.20;;;12.20;81.70;;;;;;4131757;28;20443;-84
2022/10/15 06:15:49;;;;;;;31.52;14.02;;;12.30;81.90;;;;;;4133277;28;20041;-85
2022/10/15 06:18:11;;;;;;;32.78;13.25;;;12.20;81.90;;;;;;4127416;28;20104;-84
2022/10/15 06:20:30;;;;;;;29.67;14.18;;;12.30;81.90;;;;;;4124135;28;20042;-84
2022/10/15 06:22:49;;;;;;;43.53;16.17;;;12.20;82.10;;;;;;4135197;28;20419;-85
2022/10/15 06:25:09;;;;;;;30.00;13.68;;;12.30;82.10;;;;;;4133230;28;20057;-86
2022/10/15 06:27:29;;;;;;;36.95;14.27;;;12.20;82.10;;;;;;4124069;28;20041;-84
2022/10/15 06:29:48;;;;;;;34.47;14.07;;;12.30;82.30;;;;;;4135612;28;20128;-84
2022/10/15 06:32:09;;;;;;;33.38;13.43;;;12.40;82.40;;;;;;4121390;28;20586;-85
2022/10/15 06:34:29;;;;;;;31.25;13.60;;;12.40;82.40;;;;;;4136356;28;20041;-84
2022/10/15 06:36:51;;;;;;;31.98;13.23;;;12.40;82.60;;;;;;4123898;28;20141;-84
2022/10/15 06:39:10;;;;;;;30.15;13.80;;;12.40;82.60;;;;;;4134887;28;20161;-84
2022/10/15 06:41:29;;;;;;;29.33;13.30;;;12.50;82.70;;;;;;4135669;28;20049;-84
2022/10/15 06:43:49;;;;;;;34.80;13.65;;;12.40;82.80;;;;;;4133081;28;20066;-85
2022/10/15 06:46:09;;;;;;;31.52;13.70;;;12.50;82.90;;;;;;4134351;28;20566;-84
2022/10/15 06:48:29;;;;;;;34.78;12.88;;;12.50;82.80;;;;;;4122122;28;20074;-84
2022/10/15 06:50:48;;;;;;;27.20;12.15;;;12.40;82.80;;;;;;4135016;28;20040;-84
2022/10/15 06:53:07;;;;;;;28.40;12.50;;;12.40;82.80;;;;;;4131889;28;21993;-84
2022/10/15 06:55:27;;;;;;;26.80;12.43;;;12.50;82.90;;;;;;4136773;28;20037;-84
2022/10/15 06:57:48;;;;;;;30.73;13.65;;;12.50;82.90;;;;;;4136139;28;20446;-85
2022/10/15 07:00:08;;;;;;;29.27;13.93;;;12.50;82.90;;;;;;4135811;28;20045;-84
2022/10/15 07:02:27;;;;;;;30.90;13.75;;;12.50;82.80;;;;;;4120744;28;20054;-85
2022/10/15 07:04:46;;;;;;;40.53;14.75;;;12.60;83.00;;;;;;4132774;28;20092;-84
2022/10/15 07:07:06;;;;;;;33.20;14.07;;;12.60;83.00;;;;;;4124942;28;20038;-84
2022/10/15 07:09:25;;;;;;;34.97;14.00;;;12.60;83.00;;;;;;4119374;28;20037;-85
2022/10/15 07:11:45;;;;;;;27.88;12.85;;;12.60;82.80;;;;;;4136701;28;20093;-84
2022/10/15 07:14:04;;;;;;;34.53;15.32;;;12.60;82.90;;;;;;4132966;28;20053;-84
2022/10/15 07:16:24;;;;;;;34.22;14.60;;;12.60;83.00;;;;;;4131065;28;20062;-85
2022/10/15 07:18:47;;;;;;;33.30;15.13;;;12.70;83.00;;;;;;4130594;28;20042;-85
2022/10/15 07:21:08;;;;;;;34.22;15.25;;;12.70;83.10;;;;;;4133103;28;20037;-85
2022/10/15 07:23:27;;;;;;;37.05;16.20;;;12.70;83.20;;;;;;4120028;28;20058;-84
2022/10/15 07:25:47;;;;;;;36.63;14.65;;;12.70;83.10;;;;;;4134190;28;20182;-84
2022/10/15 07:28:06;;;;;;;31.13;15.63;;;12.90;83.30;;;;;;4120530;28;20138;-85
2022/10/15 07:30:28;;;;;;;35.45;15.77;;;12.80;83.30;;;;;;4135310;28;20037;-84
2022/10/15 07:32:48;;;;;;;39.47;16.23;;;12.80;83.30;;;;;;4114317;28;20062;-85
2022/10/15 07:35:07;;;;;;;41.13;18.25;;;12.90;83.50;;;;;;4134411;28;20115;-84
2022/10/15 07:37:27;;;;;;;42.42;17.67;;;12.90;83.50;;;;;;4132286;28;20088;-85
2022/10/15 07:39:46;;;;;;;37.25;15.63;;;12.90;83.50;;;;;;4134641;28;20124;-85
2022/10/15 07:42:05;;;;;;;33.13;15.38;;;13.00;83.50;;;;;;4117671;28;20046;-85
2022/10/15 07:44:24;;;;;;;29.23;13.95;;;13.00;84.20;;;;;;4118777;28;20089;-85
2022/10/15 07:46:43;;;;;;;32.88;14.00;;;13.10;83.50;;;;;;4118230;28;20080;-84
2022/10/15 07:49:02;;;;;;;30.42;14.60;;;13.10;83.50;;;;;;4122184;28;20042;-85
2022/10/15 07:51:21;;;;;;;30.00;14.70;;;13.10;83.40;;;;;;4133286;28;20068;-85
2022/10/15 07:53:42;;;;;;;34.15;14.75;;;13.10;83.30;;;;;;4130501;28;20092;-85
2022/10/15 07:56:09;;;;;;;35.10;15.75;;;13.20;83.30;;;;;;4133860;28;20076;-85
2022/10/15 07:58:29;;;;;;;29.45;14.60;;;13.10;83.00;;;;;;4133453;28;20077;-84
2022/10/15 08:00:51;;;;;;;29.20;12.80;;;13.10;83.00;;;;;;4117451;28;20703;-85
2022/10/15 08:03:10;;;;;;;34.03;14.25;;;13.10;83.00;;;;;;4132365;28;20702;-86
2022/10/15 08:05:29;;;;;;;33.63;14.45;;;13.20;83.00;;;;;;4132659;28;20057;-85
2022/10/15 08:07:49;;;;;;;36.80;15.77;;;13.20;82.90;;;;;;4133983;28;20550;-85
2022/10/15 08:10:09;;;;;;;37.35;16.40;;;13.20;82.80;;;;;;4134348;28;20040;-85
2022/10/15 08:12:29;;;;;;;34.28;15.80;;;13.30;82.80;;;;;;4132623;28;20037;-85
2022/10/15 08:14:48;;;;;;;34.30;16.20;;;13.30;82.80;;;;;;4132404;28;20125;-85
2022/10/15 08:17:07;;;;;;;33.95;15.88;;;13.30;82.80;;;;;;4137568;28;20126;-83
2022/10/15 08:19:26;;;;;;;34.55;16.02;;;13.40;82.70;;;;;;4136058;28;20072;-85
2022/10/15 08:21:45;;;;;;;35.42;15.90;;;13.30;82.50;;;;;;4119220;28;20583;-84
2022/10/15 08:24:05;;;;;;;33.58;15.88;;;13.30;82.50;;;;;;4130174;28;20511;-85
2022/10/15 08:26:25;;;;;;;33.15;14.65;;;13.30;82.40;;;;;;4132497;28;20572;-86
2022/10/15 08:28:45;;;;;;;36.20;14.85;;;13.30;82.80;;;;;;4130893;28;20085;-85
2022/10/15 08:31:04;;;;;;;35.03;15.70;;;13.50;82.60;;;;;;4131444;28;20096;-85
2022/10/15 08:33:23;;;;;;;32.30;16.00;;;13.40;82.50;;;;;;4133858;28;20045;-86
2022/10/15 08:35:43;;;;;;;31.27;15.85;;;13.40;82.50;;;;;;4133793;28;20060;-86
2022/10/15 08:38:02;;;;;;;32.10;14.73;;;13.40;82.60;;;;;;4116806;28;20045;-85
2022/10/15 08:40:22;;;;;;;32.53;15.07;;;13.50;82.70;;;;;;4117025;28;20056;-85
2022/10/15 08:42:44;;;;;;;29.02;14.98;;;13.60;82.80;;;;;;4128884;28;20415;-85
2022/10/15 08:45:21;;;;;;;31.48;15.55;;;13.50;82.80;;;;;;4115859;28;20045;-86
2022/10/15 08:47:55;;;;;;;35.70;15.27;;;13.50;82.80;;;;;;4119218;28;20276;-85
2022/10/15 08:50:26;;;;;;;33.55;15.05;;;13.60;82.70;;;;;;4132193;28;20038;-85
2022/10/15 08:52:48;;;;;;;31.95;15.10;;;13.60;82.60;;;;;;4117659;28;20135;-84
2022/10/15 08:55:12;;;;;;;29.23;14.85;;;13.70;82.60;;;;;;4132242;28;20088;-86
2022/10/15 08:57:48;;;;;;;34.72;16.75;;;13.70;82.50;;;;;;4127763;28;20061;-85
2022/10/15 09:00:10;;;;;;;31.65;16.30;;;13.70;82.40;;;;;;4128928;28;20041;-84
2022/10/15 09:03:10;;;;;;;42.20;17.95;;;13.80;82.40;;;;;;4128216;28;20079;-86
2022/10/15 09:06:14;;;;;;;33.38;16.38;;;13.80;82.40;;;;;;4130268;28;20053;-85
2022/10/15 09:08:28;;;;;;;33.80;15.80;;;13.80;82.40;;;;;;4112790;28;20027;-85
2022/10/15 09:10:42;;;;;;;34.22;16.35;;;14.00;82.50;;;;;;4111219;28;20038;-85
2022/10/15 09:12:48;;;;;;;36.95;18.38;;;14.00;82.40;;;;;;4126529;28;20465;-87
2022/10/15 09:14:50;;;;;;;40.28;16.55;;;14.00;82.20;;;;;;4117172;28;20043;-87
2022/10/15 09:16:50;;;;;;;36.85;18.52;;;14.00;82.00;;;;;;4100355;28;20079;-86
2022/10/15 09:18:53;;;;;;;35.83;17.58;;;14.10;81.90;;;;;;4125971;28;20492;-86
2022/10/15 09:20:54;;;;;;;33.92;16.58;;;14.10;81.80;;;;;;4113799;28;20027;-85
2022/10/15 09:22:58;;;;;;;36.58;17.10;;;14.10;81.70;;;;;;4122356;28;20061;-86
2022/10/15 09:25:13;;;;;;;41.53;17.52;;;14.10;81.70;;;;;;4115712;28;20054;-87
2022/10/15 09:27:22;;;;;;;40.03;18.88;;;14.10;81.50;;;;;;4133582;28;20074;-87
2022/10/15 09:29:45;;;;;;;35.45;17.55;;;14.20;81.50;;;;;;4141425;28;20022;-86
2022/10/15 09:32:07;;;;;;;29.42;14.85;;;14.20;81.50;;;;;;4135533;28;20025;-86
2022/10/15 09:34:26;;;;;;;45.22;17.23;;;14.30;81.40;;;;;;4102699;28;20049;-87
2022/10/15 09:36:49;;;;;;;30.50;15.32;;;14.30;81.20;;;;;;4117878;28;20058;-86
2022/10/15 09:39:11;;;;;;;33.90;15.52;;;14.30;81.10;;;;;;4117851;28;20014;-86
2022/10/15 09:41:18;;;;;;;37.17;17.05;;;14.30;80.90;;;;;;4119879;28;20456;-88
2022/10/15 09:43:40;;;;;;;39.67;16.23;;;14.30;80.80;;;;;;4132934;28;20037;-86
2022/10/15 09:45:41;;;;;;;33.90;16.40;;;14.40;80.70;;;;;;4119751;28;20477;-86
2022/10/15 09:48:14;;;;;;;31.90;15.13;;;14.40;80.60;;;;;;4121223;28;20030;-86
2022/10/15 09:50:15;;;;;;;33.38;15.45;;;14.40;80.40;;;;;;4135170;28;20014;-87
2022/10/15 09:52:23;;;;;;;32.20;15.80;;;14.40;80.40;;;;;;4102527;28;20098;-86
2022/10/15 09:55:08;;;;;;;31.65;16.27;;;14.40;80.30;;;;;;4134177;28;20062;-86
2022/10/15 09:57:31;;;;;;;40.95;18.42;;;14.40;80.10;;;;;;4134069;28;20043;-86
2022/10/15 09:59:55;;;;;;;36.20;16.75;;;14.40;79.80;;;;;;4118571;28;20030;-85
2022/10/15 10:02:20;;;;;;;40.33;17.92;;;14.40;79.60;;;;;;4129725;28;20065;-86
2022/10/15 10:04:41;;;;;;;38.72;18.77;;;14.40;79.40;;;;;;4127905;28;20074;-86
2022/10/15 10:07:08;;;;;;;41.05;19.33;;;14.40;79.40;;;;;;4118954;28;20081;-88
2022/10/15 10:09:31;;;;;;;40.03;17.40;;;14.50;79.30;;;;;;4120114;28;20034;-85
2022/10/15 10:12:07;;;;;;;37.13;17.50;;;14.50;79.20;;;;;;4133868;28;20053;-85
2022/10/15 10:14:51;;;;;;;34.00;17.95;;;14.50;79.30;;;;;;4131873;28;20042;-85
2022/10/15 10:17:19;;;;;;;34.75;17.92;;;14.50;79.10;;;;;;4130985;28;20046;-87
2022/10/15 10:19:39;;;;;;;32.85;16.52;;;14.60;79.20;;;;;;4130528;28;20037;-85
2022/10/15 10:22:14;;;;;;;37.88;16.65;;;14.60;79.20;;;;;;4129650;28;20094;-85
2022/10/15 10:24:34;;;;;;;34.30;16.23;;;14.60;79.10;;;;;;4128961;28;20054;-87
2022/10/15 10:26:57;;;;;;;38.78;16.67;;;14.60;79.20;;;;;;4117962;28;20034;-85
2022/10/15 10:29:20;;;;;;;34.28;15.95;;;14.70;79.30;;;;;;4131017;28;20053;-86
2022/10/15 10:31:42;;;;;;;33.15;15.90;;;14.60;79.10;;;;;;4129125;28;20031;-86
2022/10/15 10:34:03;;;;;;;32.63;15.77;;;14.70;79.00;;;;;;4131841;28;20042;-84
2022/10/15 10:36:33;;;;;;;36.92;16.58;;;14.70;78.60;;;;;;4128599;28;20038;-86
2022/10/15 10:39:13;;;;;;;36.67;16.10;;;14.80;78.40;;;;;;4130246;28;20037;-86
2022/10/15 10:42:22;;;;;;;36.75;17.23;;;14.80;78.20;;;;;;4131118;28;20026;-86
2022/10/15 10:44:46;;;;;;;36.22;16.92;;;14.80;77.80;;;;;;4051765;29;20032;-86
2022/10/15 10:47:14;;;;;;;34.20;17.13;;;14.80;78.10;;;;;;4056420;29;20032;-85
2022/10/15 10:49:40;;;;;;;41.63;17.35;;;14.80;78.00;;;;;;4069307;29;20031;-85
2022/10/15 10:52:01;;;;;;;38.17;17.90;;;14.90;77.80;;;;;;4067373;29;20039;-86
2022/10/15 10:54:21;;;;;;;39.72;17.35;;;14.90;77.70;;;;;;4067120;29;20036;-85
2022/10/15 10:56:43;;;;;;;39.38;17.70;;;15.00;77.60;;;;;;4052537;29;20032;-86
2022/10/15 10:59:32;;;;;;;39.08;18.83;;;15.00;77.30;;;;;;4066950;29;20040;-86
2022/10/15 11:01:55;;;;;;;46.30;19.13;;;14.90;77.00;;;;;;4069912;29;20733;-86
2022/10/15 11:04:29;;;;;;;48.63;22.10;;;15.00;77.10;;;;;;4066470;29;20044;-86
2022/10/15 11:07:21;;;;;;;44.30;20.95;;;15.00;76.80;;;;;;4066579;29;20092;-85
2022/10/15 11:10:02;;;;;;;54.30;20.90;;;14.90;76.60;;;;;;4066905;29;20028;-86
2022/10/15 11:12:32;;;;;;;58.00;24.75;;;14.90;76.70;;;;;;4054921;29;20037;-85
2022/10/15 11:15:11;;;;;;;52.72;24.58;;;14.90;76.70;;;;;;4066547;29;20043;-84
2022/10/15 11:17:48;;;;;;;59.42;26.40;;;14.90;76.40;;;;;;4068889;29;20024;-86
2022/10/15 11:20:42;;;;;;;59.08;25.35;;;14.90;76.20;;;;;;4104840;28;20030;-86
2022/10/15 11:23:44;;;;;;;59.80;25.15;;;14.90;76.00;;;;;;4128645;28;20396;-86
2022/10/15 11:26:31;;;;;;;60.58;26.05;;;14.90;76.10;;;;;;4116382;28;20034;-85
2022/10/15 11:29:00;;;;;;;61.47;24.55;;;14.80;76.10;;;;;;4112310;28;20524;-86